<?xml version="1.0" encoding="UTF-8" standalone="no" ?>
<gpx xmlns="http://www.topografix.com/GPX/1/1" xmlns:xsi="http://www.w3.org/2001/XMLSchema-instance" xsi:schemaLocation="http://www.topografix.com/GPX/1/1 http://www.topografix.com/GPX/1/1/gpx.xsd" version="1.1" creator="VisuGPX - https://www.visugpx.com">
  <metadata>
    <name>Marly le Roi Parc et Foret</name>
  </metadata>
  <trk>
    <name><![CDATA[Randonnée du 29/05/2022 à 09:06]]></name>
    <trkseg>
      <trkpt lat="48.85901" lon="2.10649">
        <ele>165</ele>
        <time>2022-05-29T09:06:00+02:00</time>
      </trkpt>
      <trkpt lat="48.85895" lon="2.10609">
        <ele>167</ele>
        <time>2022-05-29T09:06:03+02:00</time>
      </trkpt>
      <trkpt lat="48.8591" lon="2.10582">
        <ele>167</ele>
        <time>2022-05-29T09:10:12+02:00</time>
      </trkpt>
      <trkpt lat="48.85917" lon="2.10549">
        <ele>166</ele>
        <time>2022-05-29T09:10:38+02:00</time>
      </trkpt>
      <trkpt lat="48.85923" lon="2.10516">
        <ele>165</ele>
        <time>2022-05-29T09:11:00+02:00</time>
      </trkpt>
      <trkpt lat="48.85933" lon="2.10485">
        <ele>164</ele>
        <time>2022-05-29T09:11:20+02:00</time>
      </trkpt>
      <trkpt lat="48.85939" lon="2.10451">
        <ele>164</ele>
        <time>2022-05-29T09:11:40+02:00</time>
      </trkpt>
      <trkpt lat="48.85945" lon="2.10418">
        <ele>163</ele>
        <time>2022-05-29T09:12:02+02:00</time>
      </trkpt>
      <trkpt lat="48.85951" lon="2.10384">
        <ele>162</ele>
        <time>2022-05-29T09:12:23+02:00</time>
      </trkpt>
      <trkpt lat="48.85958" lon="2.10351">
        <ele>161</ele>
        <time>2022-05-29T09:12:44+02:00</time>
      </trkpt>
      <trkpt lat="48.85966" lon="2.10318">
        <ele>159</ele>
        <time>2022-05-29T09:13:05+02:00</time>
      </trkpt>
      <trkpt lat="48.85973" lon="2.10284">
        <ele>156</ele>
        <time>2022-05-29T09:13:27+02:00</time>
      </trkpt>
      <trkpt lat="48.85981" lon="2.10251">
        <ele>154</ele>
        <time>2022-05-29T09:13:49+02:00</time>
      </trkpt>
      <trkpt lat="48.85988" lon="2.10218">
        <ele>150</ele>
        <time>2022-05-29T09:14:10+02:00</time>
      </trkpt>
      <trkpt lat="48.85995" lon="2.10184">
        <ele>147</ele>
        <time>2022-05-29T09:14:32+02:00</time>
      </trkpt>
      <trkpt lat="48.86003" lon="2.10152">
        <ele>143</ele>
        <time>2022-05-29T09:14:53+02:00</time>
      </trkpt>
      <trkpt lat="48.86011" lon="2.10119">
        <ele>142</ele>
        <time>2022-05-29T09:15:13+02:00</time>
      </trkpt>
      <trkpt lat="48.86019" lon="2.10086">
        <ele>138</ele>
        <time>2022-05-29T09:15:34+02:00</time>
      </trkpt>
      <trkpt lat="48.86026" lon="2.10053">
        <ele>136</ele>
        <time>2022-05-29T09:15:54+02:00</time>
      </trkpt>
      <trkpt lat="48.86033" lon="2.10019">
        <ele>133</ele>
        <time>2022-05-29T09:16:14+02:00</time>
      </trkpt>
      <trkpt lat="48.8604" lon="2.09985">
        <ele>132</ele>
        <time>2022-05-29T09:16:34+02:00</time>
      </trkpt>
      <trkpt lat="48.86049" lon="2.09953">
        <ele>131</ele>
        <time>2022-05-29T09:16:54+02:00</time>
      </trkpt>
      <trkpt lat="48.86059" lon="2.09921">
        <ele>130</ele>
        <time>2022-05-29T09:17:13+02:00</time>
      </trkpt>
      <trkpt lat="48.86065" lon="2.09887">
        <ele>130</ele>
        <time>2022-05-29T09:17:34+02:00</time>
      </trkpt>
      <trkpt lat="48.86074" lon="2.09854">
        <ele>130</ele>
        <time>2022-05-29T09:17:59+02:00</time>
      </trkpt>
      <trkpt lat="48.8608" lon="2.0982">
        <ele>130</ele>
        <time>2022-05-29T09:18:20+02:00</time>
      </trkpt>
      <trkpt lat="48.86089" lon="2.09788">
        <ele>129</ele>
        <time>2022-05-29T09:18:44+02:00</time>
      </trkpt>
      <trkpt lat="48.86094" lon="2.09754">
        <ele>130</ele>
        <time>2022-05-29T09:19:04+02:00</time>
      </trkpt>
      <trkpt lat="48.86101" lon="2.09719">
        <ele>131</ele>
        <time>2022-05-29T09:19:23+02:00</time>
      </trkpt>
      <trkpt lat="48.86085" lon="2.09691">
        <ele>132</ele>
        <time>2022-05-29T09:19:52+02:00</time>
      </trkpt>
      <trkpt lat="48.86062" lon="2.09681">
        <ele>133</ele>
        <time>2022-05-29T09:20:17+02:00</time>
      </trkpt>
      <trkpt lat="48.86039" lon="2.09686">
        <ele>134</ele>
        <time>2022-05-29T09:20:37+02:00</time>
      </trkpt>
      <trkpt lat="48.86018" lon="2.09699">
        <ele>135</ele>
        <time>2022-05-29T09:21:00+02:00</time>
      </trkpt>
      <trkpt lat="48.85995" lon="2.09712">
        <ele>135</ele>
        <time>2022-05-29T09:21:22+02:00</time>
      </trkpt>
      <trkpt lat="48.85973" lon="2.0972">
        <ele>135</ele>
        <time>2022-05-29T09:21:40+02:00</time>
      </trkpt>
      <trkpt lat="48.85953" lon="2.09738">
        <ele>136</ele>
        <time>2022-05-29T09:21:55+02:00</time>
      </trkpt>
      <trkpt lat="48.8593" lon="2.09734">
        <ele>137</ele>
        <time>2022-05-29T09:22:16+02:00</time>
      </trkpt>
      <trkpt lat="48.85908" lon="2.09731">
        <ele>139</ele>
        <time>2022-05-29T09:22:37+02:00</time>
      </trkpt>
      <trkpt lat="48.85885" lon="2.09736">
        <ele>141</ele>
        <time>2022-05-29T09:22:57+02:00</time>
      </trkpt>
      <trkpt lat="48.85863" lon="2.09722">
        <ele>144</ele>
        <time>2022-05-29T09:23:21+02:00</time>
      </trkpt>
      <trkpt lat="48.85841" lon="2.09711">
        <ele>148</ele>
        <time>2022-05-29T09:23:45+02:00</time>
      </trkpt>
      <trkpt lat="48.8582" lon="2.09699">
        <ele>150</ele>
        <time>2022-05-29T09:24:12+02:00</time>
      </trkpt>
      <trkpt lat="48.85798" lon="2.09685">
        <ele>153</ele>
        <time>2022-05-29T09:24:37+02:00</time>
      </trkpt>
      <trkpt lat="48.85777" lon="2.09671">
        <ele>156</ele>
        <time>2022-05-29T09:25:03+02:00</time>
      </trkpt>
      <trkpt lat="48.85754" lon="2.09662">
        <ele>159</ele>
        <time>2022-05-29T09:25:31+02:00</time>
      </trkpt>
      <trkpt lat="48.85732" lon="2.09655">
        <ele>162</ele>
        <time>2022-05-29T09:25:55+02:00</time>
      </trkpt>
      <trkpt lat="48.8571" lon="2.09641">
        <ele>166</ele>
        <time>2022-05-29T09:26:22+02:00</time>
      </trkpt>
      <trkpt lat="48.85689" lon="2.09629">
        <ele>169</ele>
        <time>2022-05-29T09:26:50+02:00</time>
      </trkpt>
      <trkpt lat="48.85669" lon="2.09611">
        <ele>169</ele>
        <time>2022-05-29T09:27:16+02:00</time>
      </trkpt>
      <trkpt lat="48.85683" lon="2.09583">
        <ele>170</ele>
        <time>2022-05-29T09:30:09+02:00</time>
      </trkpt>
      <trkpt lat="48.85706" lon="2.09579">
        <ele>169</ele>
        <time>2022-05-29T09:30:32+02:00</time>
      </trkpt>
      <trkpt lat="48.85728" lon="2.09572">
        <ele>167</ele>
        <time>2022-05-29T09:30:57+02:00</time>
      </trkpt>
      <trkpt lat="48.85749" lon="2.09555">
        <ele>165</ele>
        <time>2022-05-29T09:31:20+02:00</time>
      </trkpt>
      <trkpt lat="48.8576" lon="2.09525">
        <ele>166</ele>
        <time>2022-05-29T09:31:44+02:00</time>
      </trkpt>
      <trkpt lat="48.85773" lon="2.09496">
        <ele>163</ele>
        <time>2022-05-29T09:32:10+02:00</time>
      </trkpt>
      <trkpt lat="48.85785" lon="2.09467">
        <ele>161</ele>
        <time>2022-05-29T09:32:32+02:00</time>
      </trkpt>
      <trkpt lat="48.85798" lon="2.09437">
        <ele>162</ele>
        <time>2022-05-29T09:32:53+02:00</time>
      </trkpt>
      <trkpt lat="48.8581" lon="2.09407">
        <ele>162</ele>
        <time>2022-05-29T09:33:13+02:00</time>
      </trkpt>
      <trkpt lat="48.85822" lon="2.09378">
        <ele>164</ele>
        <time>2022-05-29T09:33:34+02:00</time>
      </trkpt>
      <trkpt lat="48.85835" lon="2.09349">
        <ele>166</ele>
        <time>2022-05-29T09:33:57+02:00</time>
      </trkpt>
      <trkpt lat="48.85849" lon="2.09319">
        <ele>169</ele>
        <time>2022-05-29T09:34:22+02:00</time>
      </trkpt>
      <trkpt lat="48.85872" lon="2.09309">
        <ele>170</ele>
        <time>2022-05-29T09:34:52+02:00</time>
      </trkpt>
      <trkpt lat="48.85895" lon="2.09301">
        <ele>169</ele>
        <time>2022-05-29T09:35:18+02:00</time>
      </trkpt>
      <trkpt lat="48.85915" lon="2.09285">
        <ele>169</ele>
        <time>2022-05-29T09:35:41+02:00</time>
      </trkpt>
      <trkpt lat="48.85938" lon="2.09285">
        <ele>169</ele>
        <time>2022-05-29T09:35:59+02:00</time>
      </trkpt>
      <trkpt lat="48.85961" lon="2.09278">
        <ele>170</ele>
        <time>2022-05-29T09:36:20+02:00</time>
      </trkpt>
      <trkpt lat="48.85983" lon="2.09271">
        <ele>169</ele>
        <time>2022-05-29T09:36:40+02:00</time>
      </trkpt>
      <trkpt lat="48.86005" lon="2.09264">
        <ele>170</ele>
        <time>2022-05-29T09:37:00+02:00</time>
      </trkpt>
      <trkpt lat="48.86028" lon="2.09255">
        <ele>169</ele>
        <time>2022-05-29T09:37:22+02:00</time>
      </trkpt>
      <trkpt lat="48.86051" lon="2.09248">
        <ele>170</ele>
        <time>2022-05-29T09:37:45+02:00</time>
      </trkpt>
      <trkpt lat="48.86074" lon="2.09243">
        <ele>169</ele>
        <time>2022-05-29T09:38:04+02:00</time>
      </trkpt>
      <trkpt lat="48.86096" lon="2.09236">
        <ele>169</ele>
        <time>2022-05-29T09:38:26+02:00</time>
      </trkpt>
      <trkpt lat="48.86119" lon="2.09226">
        <ele>169</ele>
        <time>2022-05-29T09:38:45+02:00</time>
      </trkpt>
      <trkpt lat="48.86141" lon="2.0922">
        <ele>168</ele>
        <time>2022-05-29T09:39:06+02:00</time>
      </trkpt>
      <trkpt lat="48.86164" lon="2.09216">
        <ele>168</ele>
        <time>2022-05-29T09:39:24+02:00</time>
      </trkpt>
      <trkpt lat="48.86186" lon="2.09207">
        <ele>168</ele>
        <time>2022-05-29T09:39:45+02:00</time>
      </trkpt>
      <trkpt lat="48.8621" lon="2.09201">
        <ele>168</ele>
        <time>2022-05-29T09:40:04+02:00</time>
      </trkpt>
      <trkpt lat="48.86222" lon="2.09172">
        <ele>168</ele>
        <time>2022-05-29T09:40:23+02:00</time>
      </trkpt>
      <trkpt lat="48.86229" lon="2.09138">
        <ele>168</ele>
        <time>2022-05-29T09:40:44+02:00</time>
      </trkpt>
      <trkpt lat="48.86235" lon="2.09104">
        <ele>168</ele>
        <time>2022-05-29T09:41:04+02:00</time>
      </trkpt>
      <trkpt lat="48.86242" lon="2.09071">
        <ele>168</ele>
        <time>2022-05-29T09:41:24+02:00</time>
      </trkpt>
      <trkpt lat="48.86252" lon="2.09039">
        <ele>169</ele>
        <time>2022-05-29T09:41:44+02:00</time>
      </trkpt>
      <trkpt lat="48.86258" lon="2.09006">
        <ele>169</ele>
        <time>2022-05-29T09:42:05+02:00</time>
      </trkpt>
      <trkpt lat="48.86266" lon="2.08973">
        <ele>169</ele>
        <time>2022-05-29T09:42:24+02:00</time>
      </trkpt>
      <trkpt lat="48.86272" lon="2.0894">
        <ele>170</ele>
        <time>2022-05-29T09:42:44+02:00</time>
      </trkpt>
      <trkpt lat="48.86282" lon="2.08908">
        <ele>169</ele>
        <time>2022-05-29T09:43:05+02:00</time>
      </trkpt>
      <trkpt lat="48.86286" lon="2.08873">
        <ele>169</ele>
        <time>2022-05-29T09:43:24+02:00</time>
      </trkpt>
      <trkpt lat="48.8628" lon="2.08838">
        <ele>170</ele>
        <time>2022-05-29T09:43:45+02:00</time>
      </trkpt>
      <trkpt lat="48.8627" lon="2.08807">
        <ele>170</ele>
        <time>2022-05-29T09:44:05+02:00</time>
      </trkpt>
      <trkpt lat="48.86261" lon="2.08776">
        <ele>171</ele>
        <time>2022-05-29T09:44:23+02:00</time>
      </trkpt>
      <trkpt lat="48.86252" lon="2.08744">
        <ele>171</ele>
        <time>2022-05-29T09:44:44+02:00</time>
      </trkpt>
      <trkpt lat="48.86245" lon="2.08711">
        <ele>172</ele>
        <time>2022-05-29T09:45:06+02:00</time>
      </trkpt>
      <trkpt lat="48.86237" lon="2.08679">
        <ele>171</ele>
        <time>2022-05-29T09:45:25+02:00</time>
      </trkpt>
      <trkpt lat="48.86229" lon="2.08646">
        <ele>171</ele>
        <time>2022-05-29T09:45:45+02:00</time>
      </trkpt>
      <trkpt lat="48.8622" lon="2.08614">
        <ele>171</ele>
        <time>2022-05-29T09:46:03+02:00</time>
      </trkpt>
      <trkpt lat="48.8621" lon="2.08583">
        <ele>172</ele>
        <time>2022-05-29T09:46:26+02:00</time>
      </trkpt>
      <trkpt lat="48.86202" lon="2.08549">
        <ele>173</ele>
        <time>2022-05-29T09:46:45+02:00</time>
      </trkpt>
      <trkpt lat="48.86193" lon="2.08517">
        <ele>173</ele>
        <time>2022-05-29T09:47:04+02:00</time>
      </trkpt>
      <trkpt lat="48.86196" lon="2.08482">
        <ele>174</ele>
        <time>2022-05-29T09:47:25+02:00</time>
      </trkpt>
      <trkpt lat="48.86207" lon="2.08452">
        <ele>173</ele>
        <time>2022-05-29T09:47:45+02:00</time>
      </trkpt>
      <trkpt lat="48.86196" lon="2.0842">
        <ele>173</ele>
        <time>2022-05-29T09:48:24+02:00</time>
      </trkpt>
      <trkpt lat="48.86175" lon="2.08404">
        <ele>173</ele>
        <time>2022-05-29T09:48:43+02:00</time>
      </trkpt>
      <trkpt lat="48.86158" lon="2.0838">
        <ele>174</ele>
        <time>2022-05-29T09:49:05+02:00</time>
      </trkpt>
      <trkpt lat="48.86139" lon="2.0836">
        <ele>173</ele>
        <time>2022-05-29T09:49:27+02:00</time>
      </trkpt>
      <trkpt lat="48.86118" lon="2.08347">
        <ele>172</ele>
        <time>2022-05-29T09:49:46+02:00</time>
      </trkpt>
      <trkpt lat="48.86097" lon="2.08332">
        <ele>172</ele>
        <time>2022-05-29T09:50:05+02:00</time>
      </trkpt>
      <trkpt lat="48.86075" lon="2.0834">
        <ele>171</ele>
        <time>2022-05-29T09:50:26+02:00</time>
      </trkpt>
      <trkpt lat="48.86053" lon="2.08338">
        <ele>170</ele>
        <time>2022-05-29T09:50:45+02:00</time>
      </trkpt>
      <trkpt lat="48.86031" lon="2.08326">
        <ele>169</ele>
        <time>2022-05-29T09:51:04+02:00</time>
      </trkpt>
      <trkpt lat="48.8601" lon="2.08315">
        <ele>168</ele>
        <time>2022-05-29T09:51:25+02:00</time>
      </trkpt>
      <trkpt lat="48.85996" lon="2.08288">
        <ele>165</ele>
        <time>2022-05-29T09:51:48+02:00</time>
      </trkpt>
      <trkpt lat="48.85983" lon="2.08259">
        <ele>161</ele>
        <time>2022-05-29T09:52:14+02:00</time>
      </trkpt>
      <trkpt lat="48.85968" lon="2.08233">
        <ele>157</ele>
        <time>2022-05-29T09:52:47+02:00</time>
      </trkpt>
      <trkpt lat="48.85961" lon="2.082">
        <ele>154</ele>
        <time>2022-05-29T09:53:24+02:00</time>
      </trkpt>
      <trkpt lat="48.8596" lon="2.08165">
        <ele>151</ele>
        <time>2022-05-29T09:53:52+02:00</time>
      </trkpt>
      <trkpt lat="48.85968" lon="2.08133">
        <ele>149</ele>
        <time>2022-05-29T09:54:16+02:00</time>
      </trkpt>
      <trkpt lat="48.85971" lon="2.08099">
        <ele>145</ele>
        <time>2022-05-29T09:54:43+02:00</time>
      </trkpt>
      <trkpt lat="48.85977" lon="2.08065">
        <ele>141</ele>
        <time>2022-05-29T09:55:08+02:00</time>
      </trkpt>
      <trkpt lat="48.85986" lon="2.08034">
        <ele>136</ele>
        <time>2022-05-29T09:55:44+02:00</time>
      </trkpt>
      <trkpt lat="48.85966" lon="2.08015">
        <ele>135</ele>
        <time>2022-05-29T09:56:10+02:00</time>
      </trkpt>
      <trkpt lat="48.85943" lon="2.08018">
        <ele>136</ele>
        <time>2022-05-29T09:56:31+02:00</time>
      </trkpt>
      <trkpt lat="48.8592" lon="2.08012">
        <ele>138</ele>
        <time>2022-05-29T09:56:50+02:00</time>
      </trkpt>
      <trkpt lat="48.85901" lon="2.07992">
        <ele>137</ele>
        <time>2022-05-29T09:57:10+02:00</time>
      </trkpt>
      <trkpt lat="48.85879" lon="2.07983">
        <ele>138</ele>
        <time>2022-05-29T09:57:29+02:00</time>
      </trkpt>
      <trkpt lat="48.85856" lon="2.0798">
        <ele>138</ele>
        <time>2022-05-29T09:57:49+02:00</time>
      </trkpt>
      <trkpt lat="48.85833" lon="2.07977">
        <ele>139</ele>
        <time>2022-05-29T09:58:07+02:00</time>
      </trkpt>
      <trkpt lat="48.85812" lon="2.07991">
        <ele>141</ele>
        <time>2022-05-29T09:58:30+02:00</time>
      </trkpt>
      <trkpt lat="48.85791" lon="2.08003">
        <ele>143</ele>
        <time>2022-05-29T09:58:52+02:00</time>
      </trkpt>
      <trkpt lat="48.8577" lon="2.0802">
        <ele>144</ele>
        <time>2022-05-29T09:59:10+02:00</time>
      </trkpt>
      <trkpt lat="48.85747" lon="2.08028">
        <ele>145</ele>
        <time>2022-05-29T09:59:33+02:00</time>
      </trkpt>
      <trkpt lat="48.85734" lon="2.07999">
        <ele>146</ele>
        <time>2022-05-29T09:59:56+02:00</time>
      </trkpt>
      <trkpt lat="48.85724" lon="2.07967">
        <ele>147</ele>
        <time>2022-05-29T10:00:15+02:00</time>
      </trkpt>
      <trkpt lat="48.85708" lon="2.07942">
        <ele>149</ele>
        <time>2022-05-29T10:00:33+02:00</time>
      </trkpt>
      <trkpt lat="48.85693" lon="2.07916">
        <ele>154</ele>
        <time>2022-05-29T10:01:03+02:00</time>
      </trkpt>
      <trkpt lat="48.85681" lon="2.07886">
        <ele>159</ele>
        <time>2022-05-29T10:01:39+02:00</time>
      </trkpt>
      <trkpt lat="48.85669" lon="2.07858">
        <ele>159</ele>
        <time>2022-05-29T10:02:53+02:00</time>
      </trkpt>
      <trkpt lat="48.85658" lon="2.07827">
        <ele>160</ele>
        <time>2022-05-29T10:03:16+02:00</time>
      </trkpt>
      <trkpt lat="48.85648" lon="2.07793">
        <ele>162</ele>
        <time>2022-05-29T10:03:43+02:00</time>
      </trkpt>
      <trkpt lat="48.85637" lon="2.07763">
        <ele>161</ele>
        <time>2022-05-29T10:04:05+02:00</time>
      </trkpt>
      <trkpt lat="48.85628" lon="2.0773">
        <ele>162</ele>
        <time>2022-05-29T10:04:25+02:00</time>
      </trkpt>
      <trkpt lat="48.85617" lon="2.07699">
        <ele>163</ele>
        <time>2022-05-29T10:04:47+02:00</time>
      </trkpt>
      <trkpt lat="48.8561" lon="2.07664">
        <ele>165</ele>
        <time>2022-05-29T10:05:12+02:00</time>
      </trkpt>
      <trkpt lat="48.85615" lon="2.07631">
        <ele>166</ele>
        <time>2022-05-29T10:05:43+02:00</time>
      </trkpt>
      <trkpt lat="48.85621" lon="2.07597">
        <ele>171</ele>
        <time>2022-05-29T10:07:25+02:00</time>
      </trkpt>
      <trkpt lat="48.85628" lon="2.07564">
        <ele>171</ele>
        <time>2022-05-29T10:07:49+02:00</time>
      </trkpt>
      <trkpt lat="48.85638" lon="2.07532">
        <ele>170</ele>
        <time>2022-05-29T10:08:13+02:00</time>
      </trkpt>
      <trkpt lat="48.85646" lon="2.07498">
        <ele>169</ele>
        <time>2022-05-29T10:08:33+02:00</time>
      </trkpt>
      <trkpt lat="48.85654" lon="2.07466">
        <ele>168</ele>
        <time>2022-05-29T10:08:56+02:00</time>
      </trkpt>
      <trkpt lat="48.8566" lon="2.07433">
        <ele>166</ele>
        <time>2022-05-29T10:09:16+02:00</time>
      </trkpt>
      <trkpt lat="48.85669" lon="2.074">
        <ele>162</ele>
        <time>2022-05-29T10:09:42+02:00</time>
      </trkpt>
      <trkpt lat="48.85679" lon="2.07369">
        <ele>157</ele>
        <time>2022-05-29T10:10:08+02:00</time>
      </trkpt>
      <trkpt lat="48.85685" lon="2.07335">
        <ele>154</ele>
        <time>2022-05-29T10:10:32+02:00</time>
      </trkpt>
      <trkpt lat="48.8569" lon="2.07301">
        <ele>154</ele>
        <time>2022-05-29T10:10:53+02:00</time>
      </trkpt>
      <trkpt lat="48.857" lon="2.07269">
        <ele>157</ele>
        <time>2022-05-29T10:11:15+02:00</time>
      </trkpt>
      <trkpt lat="48.85711" lon="2.07239">
        <ele>161</ele>
        <time>2022-05-29T10:11:41+02:00</time>
      </trkpt>
      <trkpt lat="48.85716" lon="2.07205">
        <ele>165</ele>
        <time>2022-05-29T10:12:21+02:00</time>
      </trkpt>
      <trkpt lat="48.85721" lon="2.07171">
        <ele>167</ele>
        <time>2022-05-29T10:12:46+02:00</time>
      </trkpt>
      <trkpt lat="48.85726" lon="2.07137">
        <ele>170</ele>
        <time>2022-05-29T10:13:11+02:00</time>
      </trkpt>
      <trkpt lat="48.85731" lon="2.07104">
        <ele>170</ele>
        <time>2022-05-29T10:13:31+02:00</time>
      </trkpt>
      <trkpt lat="48.85738" lon="2.0707">
        <ele>170</ele>
        <time>2022-05-29T10:13:53+02:00</time>
      </trkpt>
      <trkpt lat="48.85742" lon="2.07035">
        <ele>167</ele>
        <time>2022-05-29T10:14:16+02:00</time>
      </trkpt>
      <trkpt lat="48.85742" lon="2.07001">
        <ele>166</ele>
        <time>2022-05-29T10:14:39+02:00</time>
      </trkpt>
      <trkpt lat="48.85741" lon="2.06967">
        <ele>163</ele>
        <time>2022-05-29T10:15:01+02:00</time>
      </trkpt>
      <trkpt lat="48.85742" lon="2.06932">
        <ele>159</ele>
        <time>2022-05-29T10:15:35+02:00</time>
      </trkpt>
      <trkpt lat="48.85746" lon="2.06898">
        <ele>160</ele>
        <time>2022-05-29T10:15:53+02:00</time>
      </trkpt>
      <trkpt lat="48.85746" lon="2.06863">
        <ele>166</ele>
        <time>2022-05-29T10:16:23+02:00</time>
      </trkpt>
      <trkpt lat="48.85743" lon="2.06829">
        <ele>169</ele>
        <time>2022-05-29T10:17:06+02:00</time>
      </trkpt>
      <trkpt lat="48.85741" lon="2.06795">
        <ele>172</ele>
        <time>2022-05-29T10:17:39+02:00</time>
      </trkpt>
      <trkpt lat="48.85738" lon="2.06761">
        <ele>173</ele>
        <time>2022-05-29T10:19:07+02:00</time>
      </trkpt>
      <trkpt lat="48.85738" lon="2.06727">
        <ele>173</ele>
        <time>2022-05-29T10:19:30+02:00</time>
      </trkpt>
      <trkpt lat="48.85737" lon="2.06692">
        <ele>174</ele>
        <time>2022-05-29T10:19:52+02:00</time>
      </trkpt>
      <trkpt lat="48.85739" lon="2.06657">
        <ele>173</ele>
        <time>2022-05-29T10:20:19+02:00</time>
      </trkpt>
      <trkpt lat="48.85746" lon="2.06622">
        <ele>172</ele>
        <time>2022-05-29T10:20:43+02:00</time>
      </trkpt>
      <trkpt lat="48.85749" lon="2.06586">
        <ele>172</ele>
        <time>2022-05-29T10:21:02+02:00</time>
      </trkpt>
      <trkpt lat="48.85753" lon="2.06551">
        <ele>171</ele>
        <time>2022-05-29T10:21:24+02:00</time>
      </trkpt>
      <trkpt lat="48.85757" lon="2.06517">
        <ele>170</ele>
        <time>2022-05-29T10:21:44+02:00</time>
      </trkpt>
      <trkpt lat="48.85768" lon="2.06484">
        <ele>169</ele>
        <time>2022-05-29T10:26:50+02:00</time>
      </trkpt>
      <trkpt lat="48.85771" lon="2.0645">
        <ele>167</ele>
        <time>2022-05-29T10:27:11+02:00</time>
      </trkpt>
      <trkpt lat="48.85771" lon="2.06416">
        <ele>167</ele>
        <time>2022-05-29T10:27:37+02:00</time>
      </trkpt>
      <trkpt lat="48.85777" lon="2.06383">
        <ele>165</ele>
        <time>2022-05-29T10:28:03+02:00</time>
      </trkpt>
      <trkpt lat="48.85783" lon="2.06349">
        <ele>162</ele>
        <time>2022-05-29T10:28:31+02:00</time>
      </trkpt>
      <trkpt lat="48.85789" lon="2.06316">
        <ele>159</ele>
        <time>2022-05-29T10:28:59+02:00</time>
      </trkpt>
      <trkpt lat="48.85799" lon="2.06284">
        <ele>153</ele>
        <time>2022-05-29T10:29:30+02:00</time>
      </trkpt>
      <trkpt lat="48.85806" lon="2.06251">
        <ele>151</ele>
        <time>2022-05-29T10:29:57+02:00</time>
      </trkpt>
      <trkpt lat="48.85809" lon="2.06217">
        <ele>151</ele>
        <time>2022-05-29T10:30:17+02:00</time>
      </trkpt>
      <trkpt lat="48.85815" lon="2.06183">
        <ele>152</ele>
        <time>2022-05-29T10:30:42+02:00</time>
      </trkpt>
      <trkpt lat="48.85822" lon="2.0615">
        <ele>152</ele>
        <time>2022-05-29T10:31:04+02:00</time>
      </trkpt>
      <trkpt lat="48.85827" lon="2.06116">
        <ele>155</ele>
        <time>2022-05-29T10:31:28+02:00</time>
      </trkpt>
      <trkpt lat="48.85836" lon="2.06084">
        <ele>156</ele>
        <time>2022-05-29T10:31:55+02:00</time>
      </trkpt>
      <trkpt lat="48.85842" lon="2.06051">
        <ele>154</ele>
        <time>2022-05-29T10:32:25+02:00</time>
      </trkpt>
      <trkpt lat="48.85846" lon="2.06017">
        <ele>151</ele>
        <time>2022-05-29T10:32:52+02:00</time>
      </trkpt>
      <trkpt lat="48.85851" lon="2.05984">
        <ele>150</ele>
        <time>2022-05-29T10:33:13+02:00</time>
      </trkpt>
      <trkpt lat="48.85862" lon="2.05953">
        <ele>151</ele>
        <time>2022-05-29T10:33:38+02:00</time>
      </trkpt>
      <trkpt lat="48.85869" lon="2.0592">
        <ele>153</ele>
        <time>2022-05-29T10:34:00+02:00</time>
      </trkpt>
      <trkpt lat="48.8587" lon="2.05885">
        <ele>156</ele>
        <time>2022-05-29T10:34:24+02:00</time>
      </trkpt>
      <trkpt lat="48.85875" lon="2.0585">
        <ele>160</ele>
        <time>2022-05-29T10:34:51+02:00</time>
      </trkpt>
      <trkpt lat="48.8589" lon="2.05825">
        <ele>167</ele>
        <time>2022-05-29T10:35:26+02:00</time>
      </trkpt>
      <trkpt lat="48.85888" lon="2.05791">
        <ele>172</ele>
        <time>2022-05-29T10:36:26+02:00</time>
      </trkpt>
      <trkpt lat="48.85894" lon="2.05757">
        <ele>172</ele>
        <time>2022-05-29T10:37:39+02:00</time>
      </trkpt>
      <trkpt lat="48.859" lon="2.05722">
        <ele>173</ele>
        <time>2022-05-29T10:38:01+02:00</time>
      </trkpt>
      <trkpt lat="48.85907" lon="2.05689">
        <ele>173</ele>
        <time>2022-05-29T10:38:25+02:00</time>
      </trkpt>
      <trkpt lat="48.85917" lon="2.05658">
        <ele>173</ele>
        <time>2022-05-29T10:38:47+02:00</time>
      </trkpt>
      <trkpt lat="48.85922" lon="2.05624">
        <ele>172</ele>
        <time>2022-05-29T10:39:04+02:00</time>
      </trkpt>
      <trkpt lat="48.8593" lon="2.05591">
        <ele>172</ele>
        <time>2022-05-29T10:39:24+02:00</time>
      </trkpt>
      <trkpt lat="48.85934" lon="2.05557">
        <ele>169</ele>
        <time>2022-05-29T10:39:46+02:00</time>
      </trkpt>
      <trkpt lat="48.8594" lon="2.05523">
        <ele>165</ele>
        <time>2022-05-29T10:40:09+02:00</time>
      </trkpt>
      <trkpt lat="48.85942" lon="2.05489">
        <ele>162</ele>
        <time>2022-05-29T10:40:32+02:00</time>
      </trkpt>
      <trkpt lat="48.8595" lon="2.05456">
        <ele>159</ele>
        <time>2022-05-29T10:40:56+02:00</time>
      </trkpt>
      <trkpt lat="48.85957" lon="2.0542">
        <ele>160</ele>
        <time>2022-05-29T10:41:20+02:00</time>
      </trkpt>
      <trkpt lat="48.85959" lon="2.05384">
        <ele>163</ele>
        <time>2022-05-29T10:41:39+02:00</time>
      </trkpt>
      <trkpt lat="48.85961" lon="2.0535">
        <ele>168</ele>
        <time>2022-05-29T10:42:05+02:00</time>
      </trkpt>
      <trkpt lat="48.85963" lon="2.05315">
        <ele>169</ele>
        <time>2022-05-29T10:42:29+02:00</time>
      </trkpt>
      <trkpt lat="48.85961" lon="2.0528">
        <ele>170</ele>
        <time>2022-05-29T10:42:49+02:00</time>
      </trkpt>
      <trkpt lat="48.85962" lon="2.05246">
        <ele>170</ele>
        <time>2022-05-29T10:43:17+02:00</time>
      </trkpt>
      <trkpt lat="48.85962" lon="2.05212">
        <ele>170</ele>
        <time>2022-05-29T10:43:34+02:00</time>
      </trkpt>
      <trkpt lat="48.85956" lon="2.05179">
        <ele>171</ele>
        <time>2022-05-29T10:44:06+02:00</time>
      </trkpt>
      <trkpt lat="48.8596" lon="2.05145">
        <ele>170</ele>
        <time>2022-05-29T10:44:31+02:00</time>
      </trkpt>
      <trkpt lat="48.85975" lon="2.05119">
        <ele>169</ele>
        <time>2022-05-29T10:45:05+02:00</time>
      </trkpt>
      <trkpt lat="48.8599" lon="2.05093">
        <ele>168</ele>
        <time>2022-05-29T10:47:43+02:00</time>
      </trkpt>
      <trkpt lat="48.86001" lon="2.05062">
        <ele>167</ele>
        <time>2022-05-29T10:48:14+02:00</time>
      </trkpt>
      <trkpt lat="48.86019" lon="2.05039">
        <ele>166</ele>
        <time>2022-05-29T10:48:36+02:00</time>
      </trkpt>
      <trkpt lat="48.86036" lon="2.05015">
        <ele>165</ele>
        <time>2022-05-29T10:49:00+02:00</time>
      </trkpt>
      <trkpt lat="48.86052" lon="2.04989">
        <ele>165</ele>
        <time>2022-05-29T10:49:21+02:00</time>
      </trkpt>
      <trkpt lat="48.86071" lon="2.04968">
        <ele>163</ele>
        <time>2022-05-29T10:49:41+02:00</time>
      </trkpt>
      <trkpt lat="48.86079" lon="2.04935">
        <ele>165</ele>
        <time>2022-05-29T10:50:07+02:00</time>
      </trkpt>
      <trkpt lat="48.86095" lon="2.04912">
        <ele>165</ele>
        <time>2022-05-29T10:50:31+02:00</time>
      </trkpt>
      <trkpt lat="48.86109" lon="2.04884">
        <ele>167</ele>
        <time>2022-05-29T10:50:51+02:00</time>
      </trkpt>
      <trkpt lat="48.86125" lon="2.04858">
        <ele>167</ele>
        <time>2022-05-29T10:51:12+02:00</time>
      </trkpt>
      <trkpt lat="48.86139" lon="2.04832">
        <ele>166</ele>
        <time>2022-05-29T10:51:31+02:00</time>
      </trkpt>
      <trkpt lat="48.86154" lon="2.04804">
        <ele>167</ele>
        <time>2022-05-29T10:51:52+02:00</time>
      </trkpt>
      <trkpt lat="48.86166" lon="2.04776">
        <ele>168</ele>
        <time>2022-05-29T10:52:12+02:00</time>
      </trkpt>
      <trkpt lat="48.86182" lon="2.0475">
        <ele>169</ele>
        <time>2022-05-29T10:52:31+02:00</time>
      </trkpt>
      <trkpt lat="48.86197" lon="2.04724">
        <ele>171</ele>
        <time>2022-05-29T10:52:52+02:00</time>
      </trkpt>
      <trkpt lat="48.86206" lon="2.04693">
        <ele>175</ele>
        <time>2022-05-29T10:53:31+02:00</time>
      </trkpt>
      <trkpt lat="48.86226" lon="2.04673">
        <ele>175</ele>
        <time>2022-05-29T10:53:52+02:00</time>
      </trkpt>
      <trkpt lat="48.86239" lon="2.04646">
        <ele>176</ele>
        <time>2022-05-29T10:54:13+02:00</time>
      </trkpt>
      <trkpt lat="48.86255" lon="2.04621">
        <ele>176</ele>
        <time>2022-05-29T10:54:31+02:00</time>
      </trkpt>
      <trkpt lat="48.8627" lon="2.04594">
        <ele>178</ele>
        <time>2022-05-29T10:54:50+02:00</time>
      </trkpt>
      <trkpt lat="48.86279" lon="2.04561">
        <ele>180</ele>
        <time>2022-05-29T10:55:10+02:00</time>
      </trkpt>
      <trkpt lat="48.86301" lon="2.04549">
        <ele>179</ele>
        <time>2022-05-29T10:56:24+02:00</time>
      </trkpt>
      <trkpt lat="48.86319" lon="2.04529">
        <ele>178</ele>
        <time>2022-05-29T10:56:51+02:00</time>
      </trkpt>
      <trkpt lat="48.86337" lon="2.04507">
        <ele>178</ele>
        <time>2022-05-29T10:57:13+02:00</time>
      </trkpt>
      <trkpt lat="48.86355" lon="2.04486">
        <ele>178</ele>
        <time>2022-05-29T10:57:32+02:00</time>
      </trkpt>
      <trkpt lat="48.86373" lon="2.04463">
        <ele>180</ele>
        <time>2022-05-29T10:57:52+02:00</time>
      </trkpt>
      <trkpt lat="48.86391" lon="2.04443">
        <ele>178</ele>
        <time>2022-05-29T10:58:11+02:00</time>
      </trkpt>
      <trkpt lat="48.86413" lon="2.0443">
        <ele>181</ele>
        <time>2022-05-29T10:58:28+02:00</time>
      </trkpt>
      <trkpt lat="48.86433" lon="2.04414">
        <ele>181</ele>
        <time>2022-05-29T10:58:45+02:00</time>
      </trkpt>
      <trkpt lat="48.86449" lon="2.04391">
        <ele>181</ele>
        <time>2022-05-29T10:59:17+02:00</time>
      </trkpt>
      <trkpt lat="48.86468" lon="2.0437">
        <ele>180</ele>
        <time>2022-05-29T10:59:39+02:00</time>
      </trkpt>
      <trkpt lat="48.86489" lon="2.04356">
        <ele>181</ele>
        <time>2022-05-29T11:00:00+02:00</time>
      </trkpt>
      <trkpt lat="48.86506" lon="2.04333">
        <ele>180</ele>
        <time>2022-05-29T11:00:22+02:00</time>
      </trkpt>
      <trkpt lat="48.86527" lon="2.0432">
        <ele>181</ele>
        <time>2022-05-29T11:00:39+02:00</time>
      </trkpt>
      <trkpt lat="48.86538" lon="2.04289">
        <ele>180</ele>
        <time>2022-05-29T11:01:42+02:00</time>
      </trkpt>
      <trkpt lat="48.86557" lon="2.04271">
        <ele>180</ele>
        <time>2022-05-29T11:01:57+02:00</time>
      </trkpt>
      <trkpt lat="48.86573" lon="2.04244">
        <ele>180</ele>
        <time>2022-05-29T11:02:24+02:00</time>
      </trkpt>
      <trkpt lat="48.8659" lon="2.04221">
        <ele>180</ele>
        <time>2022-05-29T11:02:42+02:00</time>
      </trkpt>
      <trkpt lat="48.86606" lon="2.04196">
        <ele>181</ele>
        <time>2022-05-29T11:03:01+02:00</time>
      </trkpt>
      <trkpt lat="48.86622" lon="2.04173">
        <ele>181</ele>
        <time>2022-05-29T11:03:21+02:00</time>
      </trkpt>
      <trkpt lat="48.86636" lon="2.04146">
        <ele>182</ele>
        <time>2022-05-29T11:03:40+02:00</time>
      </trkpt>
      <trkpt lat="48.86653" lon="2.0412">
        <ele>181</ele>
        <time>2022-05-29T11:04:00+02:00</time>
      </trkpt>
      <trkpt lat="48.86674" lon="2.04103">
        <ele>182</ele>
        <time>2022-05-29T11:04:26+02:00</time>
      </trkpt>
      <trkpt lat="48.86688" lon="2.04076">
        <ele>180</ele>
        <time>2022-05-29T11:04:45+02:00</time>
      </trkpt>
      <trkpt lat="48.86705" lon="2.04052">
        <ele>182</ele>
        <time>2022-05-29T11:05:06+02:00</time>
      </trkpt>
      <trkpt lat="48.86697" lon="2.04019">
        <ele>182</ele>
        <time>2022-05-29T11:08:10+02:00</time>
      </trkpt>
      <trkpt lat="48.86712" lon="2.04044">
        <ele>180</ele>
        <time>2022-05-29T11:15:32+02:00</time>
      </trkpt>
      <trkpt lat="48.86701" lon="2.04074">
        <ele>180</ele>
        <time>2022-05-29T11:25:49+02:00</time>
      </trkpt>
      <trkpt lat="48.86709" lon="2.04107">
        <ele>180</ele>
        <time>2022-05-29T11:26:10+02:00</time>
      </trkpt>
      <trkpt lat="48.8672" lon="2.04139">
        <ele>179</ele>
        <time>2022-05-29T11:26:33+02:00</time>
      </trkpt>
      <trkpt lat="48.86726" lon="2.04172">
        <ele>177</ele>
        <time>2022-05-29T11:26:53+02:00</time>
      </trkpt>
      <trkpt lat="48.86729" lon="2.04206">
        <ele>176</ele>
        <time>2022-05-29T11:27:14+02:00</time>
      </trkpt>
      <trkpt lat="48.86735" lon="2.04241">
        <ele>174</ele>
        <time>2022-05-29T11:27:37+02:00</time>
      </trkpt>
      <trkpt lat="48.86752" lon="2.04263">
        <ele>170</ele>
        <time>2022-05-29T11:28:03+02:00</time>
      </trkpt>
      <trkpt lat="48.86767" lon="2.04289">
        <ele>167</ele>
        <time>2022-05-29T11:28:28+02:00</time>
      </trkpt>
      <trkpt lat="48.86764" lon="2.04323">
        <ele>163</ele>
        <time>2022-05-29T11:28:57+02:00</time>
      </trkpt>
      <trkpt lat="48.86762" lon="2.04358">
        <ele>161</ele>
        <time>2022-05-29T11:29:27+02:00</time>
      </trkpt>
      <trkpt lat="48.86763" lon="2.04394">
        <ele>157</ele>
        <time>2022-05-29T11:29:57+02:00</time>
      </trkpt>
      <trkpt lat="48.86766" lon="2.04428">
        <ele>153</ele>
        <time>2022-05-29T11:30:21+02:00</time>
      </trkpt>
      <trkpt lat="48.86777" lon="2.04459">
        <ele>150</ele>
        <time>2022-05-29T11:30:51+02:00</time>
      </trkpt>
      <trkpt lat="48.86785" lon="2.04493">
        <ele>148</ele>
        <time>2022-05-29T11:31:12+02:00</time>
      </trkpt>
      <trkpt lat="48.86793" lon="2.04526">
        <ele>148</ele>
        <time>2022-05-29T11:31:37+02:00</time>
      </trkpt>
      <trkpt lat="48.86798" lon="2.04562">
        <ele>144</ele>
        <time>2022-05-29T11:32:04+02:00</time>
      </trkpt>
      <trkpt lat="48.86802" lon="2.04597">
        <ele>142</ele>
        <time>2022-05-29T11:32:28+02:00</time>
      </trkpt>
      <trkpt lat="48.86811" lon="2.0463">
        <ele>141</ele>
        <time>2022-05-29T11:32:49+02:00</time>
      </trkpt>
      <trkpt lat="48.86817" lon="2.04665">
        <ele>140</ele>
        <time>2022-05-29T11:33:15+02:00</time>
      </trkpt>
      <trkpt lat="48.86823" lon="2.04699">
        <ele>140</ele>
        <time>2022-05-29T11:33:50+02:00</time>
      </trkpt>
      <trkpt lat="48.86823" lon="2.04733">
        <ele>137</ele>
        <time>2022-05-29T11:34:15+02:00</time>
      </trkpt>
      <trkpt lat="48.86833" lon="2.04765">
        <ele>137</ele>
        <time>2022-05-29T11:34:34+02:00</time>
      </trkpt>
      <trkpt lat="48.86838" lon="2.048">
        <ele>134</ele>
        <time>2022-05-29T11:34:59+02:00</time>
      </trkpt>
      <trkpt lat="48.86832" lon="2.04832">
        <ele>133</ele>
        <time>2022-05-29T11:35:20+02:00</time>
      </trkpt>
      <trkpt lat="48.86835" lon="2.04866">
        <ele>133</ele>
        <time>2022-05-29T11:35:37+02:00</time>
      </trkpt>
      <trkpt lat="48.86839" lon="2.04902">
        <ele>133</ele>
        <time>2022-05-29T11:35:59+02:00</time>
      </trkpt>
      <trkpt lat="48.86846" lon="2.04935">
        <ele>132</ele>
        <time>2022-05-29T11:36:19+02:00</time>
      </trkpt>
      <trkpt lat="48.86839" lon="2.04968">
        <ele>132</ele>
        <time>2022-05-29T11:36:49+02:00</time>
      </trkpt>
      <trkpt lat="48.86818" lon="2.04983">
        <ele>132</ele>
        <time>2022-05-29T11:37:07+02:00</time>
      </trkpt>
      <trkpt lat="48.86799" lon="2.05003">
        <ele>135</ele>
        <time>2022-05-29T11:37:32+02:00</time>
      </trkpt>
      <trkpt lat="48.86779" lon="2.05019">
        <ele>134</ele>
        <time>2022-05-29T11:37:55+02:00</time>
      </trkpt>
      <trkpt lat="48.86758" lon="2.05032">
        <ele>135</ele>
        <time>2022-05-29T11:38:25+02:00</time>
      </trkpt>
      <trkpt lat="48.86735" lon="2.05033">
        <ele>135</ele>
        <time>2022-05-29T11:38:51+02:00</time>
      </trkpt>
      <trkpt lat="48.86712" lon="2.05029">
        <ele>137</ele>
        <time>2022-05-29T11:39:18+02:00</time>
      </trkpt>
      <trkpt lat="48.8669" lon="2.05022">
        <ele>139</ele>
        <time>2022-05-29T11:39:39+02:00</time>
      </trkpt>
      <trkpt lat="48.86676" lon="2.05049">
        <ele>138</ele>
        <time>2022-05-29T11:40:09+02:00</time>
      </trkpt>
      <trkpt lat="48.86672" lon="2.05085">
        <ele>137</ele>
        <time>2022-05-29T11:40:31+02:00</time>
      </trkpt>
      <trkpt lat="48.8667" lon="2.0512">
        <ele>136</ele>
        <time>2022-05-29T11:40:50+02:00</time>
      </trkpt>
      <trkpt lat="48.86655" lon="2.05147">
        <ele>134</ele>
        <time>2022-05-29T11:42:02+02:00</time>
      </trkpt>
      <trkpt lat="48.86638" lon="2.05171">
        <ele>133</ele>
        <time>2022-05-29T11:42:23+02:00</time>
      </trkpt>
      <trkpt lat="48.86623" lon="2.05197">
        <ele>133</ele>
        <time>2022-05-29T11:42:43+02:00</time>
      </trkpt>
      <trkpt lat="48.86607" lon="2.05224">
        <ele>133</ele>
        <time>2022-05-29T11:43:04+02:00</time>
      </trkpt>
      <trkpt lat="48.86594" lon="2.05253">
        <ele>133</ele>
        <time>2022-05-29T11:43:24+02:00</time>
      </trkpt>
      <trkpt lat="48.8658" lon="2.05283">
        <ele>133</ele>
        <time>2022-05-29T11:43:45+02:00</time>
      </trkpt>
      <trkpt lat="48.86567" lon="2.05312">
        <ele>132</ele>
        <time>2022-05-29T11:44:05+02:00</time>
      </trkpt>
      <trkpt lat="48.86556" lon="2.05343">
        <ele>131</ele>
        <time>2022-05-29T11:44:26+02:00</time>
      </trkpt>
      <trkpt lat="48.86539" lon="2.05367">
        <ele>130</ele>
        <time>2022-05-29T11:44:52+02:00</time>
      </trkpt>
      <trkpt lat="48.86519" lon="2.05383">
        <ele>129</ele>
        <time>2022-05-29T11:45:09+02:00</time>
      </trkpt>
      <trkpt lat="48.86513" lon="2.05417">
        <ele>128</ele>
        <time>2022-05-29T11:46:00+02:00</time>
      </trkpt>
      <trkpt lat="48.86518" lon="2.05452">
        <ele>127</ele>
        <time>2022-05-29T11:46:32+02:00</time>
      </trkpt>
      <trkpt lat="48.86525" lon="2.05485">
        <ele>125</ele>
        <time>2022-05-29T11:46:57+02:00</time>
      </trkpt>
      <trkpt lat="48.86528" lon="2.0552">
        <ele>126</ele>
        <time>2022-05-29T11:47:18+02:00</time>
      </trkpt>
      <trkpt lat="48.86534" lon="2.05553">
        <ele>125</ele>
        <time>2022-05-29T11:47:42+02:00</time>
      </trkpt>
      <trkpt lat="48.86545" lon="2.05584">
        <ele>124</ele>
        <time>2022-05-29T11:48:34+02:00</time>
      </trkpt>
      <trkpt lat="48.86556" lon="2.05615">
        <ele>124</ele>
        <time>2022-05-29T11:48:56+02:00</time>
      </trkpt>
      <trkpt lat="48.86556" lon="2.0565">
        <ele>123</ele>
        <time>2022-05-29T11:49:32+02:00</time>
      </trkpt>
      <trkpt lat="48.86536" lon="2.05669">
        <ele>122</ele>
        <time>2022-05-29T11:49:54+02:00</time>
      </trkpt>
      <trkpt lat="48.86517" lon="2.05688">
        <ele>121</ele>
        <time>2022-05-29T11:50:15+02:00</time>
      </trkpt>
      <trkpt lat="48.865" lon="2.05714">
        <ele>120</ele>
        <time>2022-05-29T11:50:35+02:00</time>
      </trkpt>
      <trkpt lat="48.8648" lon="2.05731">
        <ele>121</ele>
        <time>2022-05-29T11:50:56+02:00</time>
      </trkpt>
      <trkpt lat="48.86464" lon="2.05756">
        <ele>123</ele>
        <time>2022-05-29T11:51:22+02:00</time>
      </trkpt>
      <trkpt lat="48.86445" lon="2.05776">
        <ele>126</ele>
        <time>2022-05-29T11:51:46+02:00</time>
      </trkpt>
      <trkpt lat="48.86425" lon="2.05797">
        <ele>127</ele>
        <time>2022-05-29T11:52:13+02:00</time>
      </trkpt>
      <trkpt lat="48.86407" lon="2.05818">
        <ele>128</ele>
        <time>2022-05-29T11:52:36+02:00</time>
      </trkpt>
      <trkpt lat="48.86388" lon="2.05841">
        <ele>130</ele>
        <time>2022-05-29T11:52:57+02:00</time>
      </trkpt>
      <trkpt lat="48.8637" lon="2.05862">
        <ele>129</ele>
        <time>2022-05-29T11:53:20+02:00</time>
      </trkpt>
      <trkpt lat="48.86351" lon="2.05884">
        <ele>130</ele>
        <time>2022-05-29T11:53:39+02:00</time>
      </trkpt>
      <trkpt lat="48.86332" lon="2.05906">
        <ele>130</ele>
        <time>2022-05-29T11:54:03+02:00</time>
      </trkpt>
      <trkpt lat="48.86315" lon="2.05928">
        <ele>130</ele>
        <time>2022-05-29T11:54:23+02:00</time>
      </trkpt>
      <trkpt lat="48.86294" lon="2.05945">
        <ele>131</ele>
        <time>2022-05-29T11:54:44+02:00</time>
      </trkpt>
      <trkpt lat="48.86277" lon="2.05969">
        <ele>132</ele>
        <time>2022-05-29T11:55:05+02:00</time>
      </trkpt>
      <trkpt lat="48.86258" lon="2.05988">
        <ele>132</ele>
        <time>2022-05-29T11:55:26+02:00</time>
      </trkpt>
      <trkpt lat="48.86237" lon="2.06005">
        <ele>133</ele>
        <time>2022-05-29T11:55:44+02:00</time>
      </trkpt>
      <trkpt lat="48.8622" lon="2.06027">
        <ele>133</ele>
        <time>2022-05-29T11:56:11+02:00</time>
      </trkpt>
      <trkpt lat="48.86203" lon="2.0605">
        <ele>134</ele>
        <time>2022-05-29T11:56:34+02:00</time>
      </trkpt>
      <trkpt lat="48.86186" lon="2.06073">
        <ele>135</ele>
        <time>2022-05-29T11:56:52+02:00</time>
      </trkpt>
      <trkpt lat="48.86167" lon="2.06093">
        <ele>137</ele>
        <time>2022-05-29T11:57:17+02:00</time>
      </trkpt>
      <trkpt lat="48.86149" lon="2.06114">
        <ele>139</ele>
        <time>2022-05-29T11:57:39+02:00</time>
      </trkpt>
      <trkpt lat="48.8613" lon="2.06134">
        <ele>141</ele>
        <time>2022-05-29T11:58:01+02:00</time>
      </trkpt>
      <trkpt lat="48.86115" lon="2.0616">
        <ele>143</ele>
        <time>2022-05-29T11:58:30+02:00</time>
      </trkpt>
      <trkpt lat="48.86094" lon="2.06177">
        <ele>142</ele>
        <time>2022-05-29T11:58:53+02:00</time>
      </trkpt>
      <trkpt lat="48.86076" lon="2.06198">
        <ele>142</ele>
        <time>2022-05-29T11:59:19+02:00</time>
      </trkpt>
      <trkpt lat="48.86085" lon="2.06229">
        <ele>138</ele>
        <time>2022-05-29T12:01:37+02:00</time>
      </trkpt>
      <trkpt lat="48.86083" lon="2.06264">
        <ele>133</ele>
        <time>2022-05-29T12:02:08+02:00</time>
      </trkpt>
      <trkpt lat="48.86081" lon="2.06299">
        <ele>131</ele>
        <time>2022-05-29T12:02:30+02:00</time>
      </trkpt>
      <trkpt lat="48.86078" lon="2.06333">
        <ele>130</ele>
        <time>2022-05-29T12:02:48+02:00</time>
      </trkpt>
      <trkpt lat="48.86076" lon="2.06367">
        <ele>130</ele>
        <time>2022-05-29T12:03:09+02:00</time>
      </trkpt>
      <trkpt lat="48.86078" lon="2.06402">
        <ele>130</ele>
        <time>2022-05-29T12:03:29+02:00</time>
      </trkpt>
      <trkpt lat="48.86078" lon="2.06437">
        <ele>130</ele>
        <time>2022-05-29T12:03:52+02:00</time>
      </trkpt>
      <trkpt lat="48.86083" lon="2.06471">
        <ele>130</ele>
        <time>2022-05-29T12:04:12+02:00</time>
      </trkpt>
      <trkpt lat="48.86079" lon="2.06504">
        <ele>131</ele>
        <time>2022-05-29T12:04:30+02:00</time>
      </trkpt>
      <trkpt lat="48.86079" lon="2.06539">
        <ele>131</ele>
        <time>2022-05-29T12:04:54+02:00</time>
      </trkpt>
      <trkpt lat="48.8608" lon="2.06575">
        <ele>132</ele>
        <time>2022-05-29T12:05:16+02:00</time>
      </trkpt>
      <trkpt lat="48.8608" lon="2.06609">
        <ele>130</ele>
        <time>2022-05-29T12:05:35+02:00</time>
      </trkpt>
      <trkpt lat="48.86081" lon="2.06645">
        <ele>130</ele>
        <time>2022-05-29T12:05:56+02:00</time>
      </trkpt>
      <trkpt lat="48.86077" lon="2.06679">
        <ele>129</ele>
        <time>2022-05-29T12:06:13+02:00</time>
      </trkpt>
      <trkpt lat="48.86065" lon="2.06709">
        <ele>130</ele>
        <time>2022-05-29T12:07:26+02:00</time>
      </trkpt>
      <trkpt lat="48.86054" lon="2.0674">
        <ele>130</ele>
        <time>2022-05-29T12:07:43+02:00</time>
      </trkpt>
      <trkpt lat="48.8604" lon="2.06768">
        <ele>132</ele>
        <time>2022-05-29T12:08:04+02:00</time>
      </trkpt>
      <trkpt lat="48.86029" lon="2.06798">
        <ele>133</ele>
        <time>2022-05-29T12:08:23+02:00</time>
      </trkpt>
      <trkpt lat="48.86015" lon="2.06825">
        <ele>134</ele>
        <time>2022-05-29T12:08:47+02:00</time>
      </trkpt>
      <trkpt lat="48.86003" lon="2.06858">
        <ele>135</ele>
        <time>2022-05-29T12:09:11+02:00</time>
      </trkpt>
      <trkpt lat="48.85991" lon="2.06888">
        <ele>137</ele>
        <time>2022-05-29T12:09:30+02:00</time>
      </trkpt>
      <trkpt lat="48.85979" lon="2.06918">
        <ele>137</ele>
        <time>2022-05-29T12:09:52+02:00</time>
      </trkpt>
      <trkpt lat="48.85964" lon="2.06946">
        <ele>137</ele>
        <time>2022-05-29T12:10:16+02:00</time>
      </trkpt>
      <trkpt lat="48.85954" lon="2.06977">
        <ele>138</ele>
        <time>2022-05-29T12:10:39+02:00</time>
      </trkpt>
      <trkpt lat="48.8595" lon="2.07011">
        <ele>139</ele>
        <time>2022-05-29T12:11:01+02:00</time>
      </trkpt>
      <trkpt lat="48.85957" lon="2.07043">
        <ele>140</ele>
        <time>2022-05-29T12:12:01+02:00</time>
      </trkpt>
      <trkpt lat="48.85959" lon="2.07079">
        <ele>141</ele>
        <time>2022-05-29T12:12:28+02:00</time>
      </trkpt>
      <trkpt lat="48.85958" lon="2.07113">
        <ele>143</ele>
        <time>2022-05-29T12:12:53+02:00</time>
      </trkpt>
      <trkpt lat="48.85961" lon="2.07148">
        <ele>144</ele>
        <time>2022-05-29T12:13:15+02:00</time>
      </trkpt>
      <trkpt lat="48.85957" lon="2.07183">
        <ele>144</ele>
        <time>2022-05-29T12:13:44+02:00</time>
      </trkpt>
      <trkpt lat="48.85951" lon="2.07217">
        <ele>145</ele>
        <time>2022-05-29T12:14:13+02:00</time>
      </trkpt>
      <trkpt lat="48.85948" lon="2.07252">
        <ele>144</ele>
        <time>2022-05-29T12:15:09+02:00</time>
      </trkpt>
      <trkpt lat="48.85942" lon="2.07285">
        <ele>143</ele>
        <time>2022-05-29T12:15:29+02:00</time>
      </trkpt>
      <trkpt lat="48.85933" lon="2.07317">
        <ele>141</ele>
        <time>2022-05-29T12:15:50+02:00</time>
      </trkpt>
      <trkpt lat="48.85924" lon="2.07349">
        <ele>140</ele>
        <time>2022-05-29T12:16:11+02:00</time>
      </trkpt>
      <trkpt lat="48.85922" lon="2.07383">
        <ele>140</ele>
        <time>2022-05-29T12:17:15+02:00</time>
      </trkpt>
      <trkpt lat="48.85927" lon="2.07417">
        <ele>137</ele>
        <time>2022-05-29T12:17:40+02:00</time>
      </trkpt>
      <trkpt lat="48.8593" lon="2.07452">
        <ele>136</ele>
        <time>2022-05-29T12:18:00+02:00</time>
      </trkpt>
      <trkpt lat="48.85937" lon="2.07484">
        <ele>135</ele>
        <time>2022-05-29T12:18:20+02:00</time>
      </trkpt>
      <trkpt lat="48.8594" lon="2.07519">
        <ele>135</ele>
        <time>2022-05-29T12:18:39+02:00</time>
      </trkpt>
      <trkpt lat="48.8595" lon="2.07551">
        <ele>134</ele>
        <time>2022-05-29T12:19:03+02:00</time>
      </trkpt>
      <trkpt lat="48.85953" lon="2.07586">
        <ele>133</ele>
        <time>2022-05-29T12:19:21+02:00</time>
      </trkpt>
      <trkpt lat="48.85959" lon="2.0762">
        <ele>132</ele>
        <time>2022-05-29T12:19:43+02:00</time>
      </trkpt>
      <trkpt lat="48.85966" lon="2.07653">
        <ele>130</ele>
        <time>2022-05-29T12:20:03+02:00</time>
      </trkpt>
      <trkpt lat="48.85972" lon="2.07688">
        <ele>130</ele>
        <time>2022-05-29T12:20:23+02:00</time>
      </trkpt>
      <trkpt lat="48.85976" lon="2.07723">
        <ele>129</ele>
        <time>2022-05-29T12:20:44+02:00</time>
      </trkpt>
      <trkpt lat="48.85983" lon="2.07755">
        <ele>128</ele>
        <time>2022-05-29T12:21:06+02:00</time>
      </trkpt>
      <trkpt lat="48.85987" lon="2.0779">
        <ele>127</ele>
        <time>2022-05-29T12:21:26+02:00</time>
      </trkpt>
      <trkpt lat="48.85993" lon="2.07823">
        <ele>127</ele>
        <time>2022-05-29T12:21:45+02:00</time>
      </trkpt>
      <trkpt lat="48.86005" lon="2.07853">
        <ele>127</ele>
        <time>2022-05-29T12:22:05+02:00</time>
      </trkpt>
      <trkpt lat="48.86019" lon="2.07881">
        <ele>127</ele>
        <time>2022-05-29T12:22:25+02:00</time>
      </trkpt>
      <trkpt lat="48.86034" lon="2.07908">
        <ele>128</ele>
        <time>2022-05-29T12:22:47+02:00</time>
      </trkpt>
      <trkpt lat="48.86052" lon="2.07929">
        <ele>129</ele>
        <time>2022-05-29T12:23:07+02:00</time>
      </trkpt>
      <trkpt lat="48.86067" lon="2.07955">
        <ele>131</ele>
        <time>2022-05-29T12:23:55+02:00</time>
      </trkpt>
      <trkpt lat="48.86084" lon="2.07978">
        <ele>133</ele>
        <time>2022-05-29T12:24:15+02:00</time>
      </trkpt>
      <trkpt lat="48.86107" lon="2.0798">
        <ele>136</ele>
        <time>2022-05-29T12:24:36+02:00</time>
      </trkpt>
      <trkpt lat="48.86122" lon="2.08006">
        <ele>141</ele>
        <time>2022-05-29T12:25:06+02:00</time>
      </trkpt>
      <trkpt lat="48.86143" lon="2.08018">
        <ele>145</ele>
        <time>2022-05-29T12:25:57+02:00</time>
      </trkpt>
      <trkpt lat="48.86162" lon="2.08039">
        <ele>148</ele>
        <time>2022-05-29T12:27:37+02:00</time>
      </trkpt>
      <trkpt lat="48.86184" lon="2.08049">
        <ele>150</ele>
        <time>2022-05-29T12:28:01+02:00</time>
      </trkpt>
      <trkpt lat="48.86206" lon="2.08062">
        <ele>153</ele>
        <time>2022-05-29T12:28:29+02:00</time>
      </trkpt>
      <trkpt lat="48.86225" lon="2.08078">
        <ele>156</ele>
        <time>2022-05-29T12:29:02+02:00</time>
      </trkpt>
      <trkpt lat="48.86249" lon="2.08087">
        <ele>158</ele>
        <time>2022-05-29T12:29:41+02:00</time>
      </trkpt>
      <trkpt lat="48.86269" lon="2.08101">
        <ele>162</ele>
        <time>2022-05-29T12:30:22+02:00</time>
      </trkpt>
      <trkpt lat="48.86286" lon="2.08124">
        <ele>166</ele>
        <time>2022-05-29T12:31:12+02:00</time>
      </trkpt>
      <trkpt lat="48.86309" lon="2.08124">
        <ele>166</ele>
        <time>2022-05-29T12:31:35+02:00</time>
      </trkpt>
      <trkpt lat="48.86332" lon="2.08132">
        <ele>167</ele>
        <time>2022-05-29T12:32:03+02:00</time>
      </trkpt>
      <trkpt lat="48.86349" lon="2.08154">
        <ele>169</ele>
        <time>2022-05-29T12:32:36+02:00</time>
      </trkpt>
      <trkpt lat="48.86371" lon="2.08166">
        <ele>170</ele>
        <time>2022-05-29T12:32:59+02:00</time>
      </trkpt>
      <trkpt lat="48.86373" lon="2.08132">
        <ele>169</ele>
        <time>2022-05-29T12:34:58+02:00</time>
      </trkpt>
      <trkpt lat="48.86355" lon="2.08109">
        <ele>168</ele>
        <time>2022-05-29T12:35:35+02:00</time>
      </trkpt>
      <trkpt lat="48.86355" lon="2.08074">
        <ele>166</ele>
        <time>2022-05-29T12:36:04+02:00</time>
      </trkpt>
      <trkpt lat="48.86372" lon="2.08052">
        <ele>165</ele>
        <time>2022-05-29T12:36:58+02:00</time>
      </trkpt>
      <trkpt lat="48.86356" lon="2.08076">
        <ele>166</ele>
        <time>2022-05-29T12:38:26+02:00</time>
      </trkpt>
      <trkpt lat="48.86373" lon="2.08101">
        <ele>169</ele>
        <time>2022-05-29T13:18:08+02:00</time>
      </trkpt>
      <trkpt lat="48.86388" lon="2.08127">
        <ele>168</ele>
        <time>2022-05-29T13:18:38+02:00</time>
      </trkpt>
      <trkpt lat="48.8639" lon="2.08162">
        <ele>169</ele>
        <time>2022-05-29T13:18:55+02:00</time>
      </trkpt>
      <trkpt lat="48.86388" lon="2.08197">
        <ele>170</ele>
        <time>2022-05-29T13:19:16+02:00</time>
      </trkpt>
      <trkpt lat="48.86395" lon="2.0823">
        <ele>170</ele>
        <time>2022-05-29T13:19:38+02:00</time>
      </trkpt>
      <trkpt lat="48.864" lon="2.08265">
        <ele>170</ele>
        <time>2022-05-29T13:19:58+02:00</time>
      </trkpt>
      <trkpt lat="48.86411" lon="2.08298">
        <ele>170</ele>
        <time>2022-05-29T13:20:19+02:00</time>
      </trkpt>
      <trkpt lat="48.86417" lon="2.08332">
        <ele>170</ele>
        <time>2022-05-29T13:20:40+02:00</time>
      </trkpt>
      <trkpt lat="48.86424" lon="2.08366">
        <ele>170</ele>
        <time>2022-05-29T13:21:00+02:00</time>
      </trkpt>
      <trkpt lat="48.8643" lon="2.08399">
        <ele>170</ele>
        <time>2022-05-29T13:21:19+02:00</time>
      </trkpt>
      <trkpt lat="48.86436" lon="2.08433">
        <ele>170</ele>
        <time>2022-05-29T13:21:38+02:00</time>
      </trkpt>
      <trkpt lat="48.86446" lon="2.08463">
        <ele>170</ele>
        <time>2022-05-29T13:21:59+02:00</time>
      </trkpt>
      <trkpt lat="48.86451" lon="2.08498">
        <ele>169</ele>
        <time>2022-05-29T13:22:20+02:00</time>
      </trkpt>
      <trkpt lat="48.86456" lon="2.08533">
        <ele>169</ele>
        <time>2022-05-29T13:22:38+02:00</time>
      </trkpt>
      <trkpt lat="48.86462" lon="2.08567">
        <ele>168</ele>
        <time>2022-05-29T13:22:58+02:00</time>
      </trkpt>
      <trkpt lat="48.86466" lon="2.08601">
        <ele>167</ele>
        <time>2022-05-29T13:23:16+02:00</time>
      </trkpt>
      <trkpt lat="48.86472" lon="2.08636">
        <ele>166</ele>
        <time>2022-05-29T13:23:36+02:00</time>
      </trkpt>
      <trkpt lat="48.86477" lon="2.08671">
        <ele>166</ele>
        <time>2022-05-29T13:24:02+02:00</time>
      </trkpt>
      <trkpt lat="48.86469" lon="2.08703">
        <ele>166</ele>
        <time>2022-05-29T13:24:31+02:00</time>
      </trkpt>
      <trkpt lat="48.86451" lon="2.08725">
        <ele>168</ele>
        <time>2022-05-29T13:24:54+02:00</time>
      </trkpt>
      <trkpt lat="48.86429" lon="2.08736">
        <ele>168</ele>
        <time>2022-05-29T13:25:22+02:00</time>
      </trkpt>
      <trkpt lat="48.86406" lon="2.08737">
        <ele>168</ele>
        <time>2022-05-29T13:25:46+02:00</time>
      </trkpt>
      <trkpt lat="48.86383" lon="2.08738">
        <ele>168</ele>
        <time>2022-05-29T13:26:04+02:00</time>
      </trkpt>
      <trkpt lat="48.8636" lon="2.0874">
        <ele>168</ele>
        <time>2022-05-29T13:26:24+02:00</time>
      </trkpt>
      <trkpt lat="48.86337" lon="2.08741">
        <ele>169</ele>
        <time>2022-05-29T13:26:45+02:00</time>
      </trkpt>
      <trkpt lat="48.86313" lon="2.08739">
        <ele>170</ele>
        <time>2022-05-29T13:27:05+02:00</time>
      </trkpt>
      <trkpt lat="48.8629" lon="2.0874">
        <ele>170</ele>
        <time>2022-05-29T13:27:24+02:00</time>
      </trkpt>
      <trkpt lat="48.86267" lon="2.08738">
        <ele>171</ele>
        <time>2022-05-29T13:27:46+02:00</time>
      </trkpt>
      <trkpt lat="48.86257" lon="2.0877">
        <ele>170</ele>
        <time>2022-05-29T13:28:11+02:00</time>
      </trkpt>
      <trkpt lat="48.8626" lon="2.08778">
        <ele>170</ele>
        <time>2022-05-29T13:28:24+02:00</time>
      </trkpt>
      <trkpt lat="48.8626" lon="2.08778">
        <ele>170</ele>
        <time>2022-05-29T13:28:24+02:00</time>
      </trkpt>
      <trkpt lat="48.86271" lon="2.08809">
        <ele>170</ele>
        <time>2022-05-29T13:28:43+02:00</time>
      </trkpt>
      <trkpt lat="48.86282" lon="2.0884">
        <ele>170</ele>
        <time>2022-05-29T13:29:03+02:00</time>
      </trkpt>
      <trkpt lat="48.86288" lon="2.08873">
        <ele>169</ele>
        <time>2022-05-29T13:29:28+02:00</time>
      </trkpt>
      <trkpt lat="48.86282" lon="2.08906">
        <ele>169</ele>
        <time>2022-05-29T13:29:46+02:00</time>
      </trkpt>
      <trkpt lat="48.86274" lon="2.08938">
        <ele>169</ele>
        <time>2022-05-29T13:30:06+02:00</time>
      </trkpt>
      <trkpt lat="48.86266" lon="2.08971">
        <ele>169</ele>
        <time>2022-05-29T13:30:27+02:00</time>
      </trkpt>
      <trkpt lat="48.86259" lon="2.09004">
        <ele>170</ele>
        <time>2022-05-29T13:30:46+02:00</time>
      </trkpt>
      <trkpt lat="48.86252" lon="2.09039">
        <ele>168</ele>
        <time>2022-05-29T13:31:07+02:00</time>
      </trkpt>
      <trkpt lat="48.86245" lon="2.09072">
        <ele>169</ele>
        <time>2022-05-29T13:31:27+02:00</time>
      </trkpt>
      <trkpt lat="48.86237" lon="2.09106">
        <ele>169</ele>
        <time>2022-05-29T13:31:46+02:00</time>
      </trkpt>
      <trkpt lat="48.86229" lon="2.09139">
        <ele>169</ele>
        <time>2022-05-29T13:32:08+02:00</time>
      </trkpt>
      <trkpt lat="48.86222" lon="2.09172">
        <ele>168</ele>
        <time>2022-05-29T13:32:28+02:00</time>
      </trkpt>
      <trkpt lat="48.86214" lon="2.09205">
        <ele>168</ele>
        <time>2022-05-29T13:32:47+02:00</time>
      </trkpt>
      <trkpt lat="48.86208" lon="2.0924">
        <ele>166</ele>
        <time>2022-05-29T13:33:08+02:00</time>
      </trkpt>
      <trkpt lat="48.862" lon="2.09273">
        <ele>165</ele>
        <time>2022-05-29T13:33:30+02:00</time>
      </trkpt>
      <trkpt lat="48.86193" lon="2.09307">
        <ele>164</ele>
        <time>2022-05-29T13:33:51+02:00</time>
      </trkpt>
      <trkpt lat="48.86188" lon="2.09342">
        <ele>162</ele>
        <time>2022-05-29T13:34:13+02:00</time>
      </trkpt>
      <trkpt lat="48.86181" lon="2.09375">
        <ele>160</ele>
        <time>2022-05-29T13:34:34+02:00</time>
      </trkpt>
      <trkpt lat="48.86172" lon="2.09407">
        <ele>159</ele>
        <time>2022-05-29T13:34:55+02:00</time>
      </trkpt>
      <trkpt lat="48.86155" lon="2.09429">
        <ele>158</ele>
        <time>2022-05-29T13:35:30+02:00</time>
      </trkpt>
      <trkpt lat="48.86154" lon="2.09465">
        <ele>154</ele>
        <time>2022-05-29T13:36:02+02:00</time>
      </trkpt>
      <trkpt lat="48.86155" lon="2.09499">
        <ele>151</ele>
        <time>2022-05-29T13:36:24+02:00</time>
      </trkpt>
      <trkpt lat="48.86147" lon="2.09533">
        <ele>147</ele>
        <time>2022-05-29T13:36:46+02:00</time>
      </trkpt>
      <trkpt lat="48.86138" lon="2.09565">
        <ele>145</ele>
        <time>2022-05-29T13:37:07+02:00</time>
      </trkpt>
      <trkpt lat="48.8613" lon="2.09597">
        <ele>138</ele>
        <time>2022-05-29T13:37:47+02:00</time>
      </trkpt>
      <trkpt lat="48.86127" lon="2.09632">
        <ele>137</ele>
        <time>2022-05-29T13:38:12+02:00</time>
      </trkpt>
      <trkpt lat="48.86137" lon="2.09662">
        <ele>133</ele>
        <time>2022-05-29T13:38:45+02:00</time>
      </trkpt>
      <trkpt lat="48.86122" lon="2.09688">
        <ele>132</ele>
        <time>2022-05-29T13:39:19+02:00</time>
      </trkpt>
      <trkpt lat="48.8613" lon="2.0972">
        <ele>129</ele>
        <time>2022-05-29T13:40:05+02:00</time>
      </trkpt>
      <trkpt lat="48.86153" lon="2.09718">
        <ele>129</ele>
        <time>2022-05-29T13:40:29+02:00</time>
      </trkpt>
      <trkpt lat="48.86171" lon="2.09698">
        <ele>130</ele>
        <time>2022-05-29T13:40:50+02:00</time>
      </trkpt>
      <trkpt lat="48.86193" lon="2.09687">
        <ele>128</ele>
        <time>2022-05-29T13:41:15+02:00</time>
      </trkpt>
      <trkpt lat="48.86214" lon="2.09701">
        <ele>128</ele>
        <time>2022-05-29T13:41:35+02:00</time>
      </trkpt>
      <trkpt lat="48.86226" lon="2.0973">
        <ele>126</ele>
        <time>2022-05-29T13:42:07+02:00</time>
      </trkpt>
      <trkpt lat="48.86248" lon="2.09739">
        <ele>125</ele>
        <time>2022-05-29T13:42:25+02:00</time>
      </trkpt>
      <trkpt lat="48.86269" lon="2.09752">
        <ele>125</ele>
        <time>2022-05-29T13:42:43+02:00</time>
      </trkpt>
      <trkpt lat="48.86291" lon="2.09764">
        <ele>124</ele>
        <time>2022-05-29T13:43:06+02:00</time>
      </trkpt>
      <trkpt lat="48.86313" lon="2.09776">
        <ele>123</ele>
        <time>2022-05-29T13:43:27+02:00</time>
      </trkpt>
      <trkpt lat="48.86335" lon="2.09787">
        <ele>122</ele>
        <time>2022-05-29T13:43:47+02:00</time>
      </trkpt>
      <trkpt lat="48.86357" lon="2.09797">
        <ele>121</ele>
        <time>2022-05-29T13:44:07+02:00</time>
      </trkpt>
      <trkpt lat="48.86378" lon="2.09811">
        <ele>120</ele>
        <time>2022-05-29T13:44:29+02:00</time>
      </trkpt>
      <trkpt lat="48.864" lon="2.0982">
        <ele>119</ele>
        <time>2022-05-29T13:44:50+02:00</time>
      </trkpt>
      <trkpt lat="48.86423" lon="2.09832">
        <ele>119</ele>
        <time>2022-05-29T13:45:10+02:00</time>
      </trkpt>
      <trkpt lat="48.86445" lon="2.09845">
        <ele>118</ele>
        <time>2022-05-29T13:45:32+02:00</time>
      </trkpt>
      <trkpt lat="48.86466" lon="2.09855">
        <ele>117</ele>
        <time>2022-05-29T13:45:50+02:00</time>
      </trkpt>
      <trkpt lat="48.86488" lon="2.09866">
        <ele>117</ele>
        <time>2022-05-29T13:46:11+02:00</time>
      </trkpt>
      <trkpt lat="48.8651" lon="2.09857">
        <ele>116</ele>
        <time>2022-05-29T13:46:39+02:00</time>
      </trkpt>
      <trkpt lat="48.86519" lon="2.09823">
        <ele>117</ele>
        <time>2022-05-29T13:46:59+02:00</time>
      </trkpt>
      <trkpt lat="48.86524" lon="2.0979">
        <ele>118</ele>
        <time>2022-05-29T13:47:19+02:00</time>
      </trkpt>
      <trkpt lat="48.86531" lon="2.09756">
        <ele>119</ele>
        <time>2022-05-29T13:47:52+02:00</time>
      </trkpt>
      <trkpt lat="48.86547" lon="2.09782">
        <ele>118</ele>
        <time>2022-05-29T13:51:15+02:00</time>
      </trkpt>
      <trkpt lat="48.86556" lon="2.09813">
        <ele>117</ele>
        <time>2022-05-29T13:51:37+02:00</time>
      </trkpt>
      <trkpt lat="48.86563" lon="2.09845">
        <ele>115</ele>
        <time>2022-05-29T13:51:59+02:00</time>
      </trkpt>
      <trkpt lat="48.86574" lon="2.09876">
        <ele>113</ele>
        <time>2022-05-29T13:52:22+02:00</time>
      </trkpt>
      <trkpt lat="48.86583" lon="2.09908">
        <ele>112</ele>
        <time>2022-05-29T13:52:43+02:00</time>
      </trkpt>
      <trkpt lat="48.86592" lon="2.0994">
        <ele>111</ele>
        <time>2022-05-29T13:53:04+02:00</time>
      </trkpt>
      <trkpt lat="48.86599" lon="2.09973">
        <ele>109</ele>
        <time>2022-05-29T13:53:24+02:00</time>
      </trkpt>
      <trkpt lat="48.8661" lon="2.10003">
        <ele>107</ele>
        <time>2022-05-29T13:53:46+02:00</time>
      </trkpt>
      <trkpt lat="48.86619" lon="2.10036">
        <ele>105</ele>
        <time>2022-05-29T13:54:07+02:00</time>
      </trkpt>
      <trkpt lat="48.86627" lon="2.10068">
        <ele>104</ele>
        <time>2022-05-29T13:54:30+02:00</time>
      </trkpt>
      <trkpt lat="48.86623" lon="2.10103">
        <ele>105</ele>
        <time>2022-05-29T13:55:09+02:00</time>
      </trkpt>
      <trkpt lat="48.86616" lon="2.10136">
        <ele>105</ele>
        <time>2022-05-29T13:55:35+02:00</time>
      </trkpt>
      <trkpt lat="48.86608" lon="2.10168">
        <ele>104</ele>
        <time>2022-05-29T13:55:57+02:00</time>
      </trkpt>
      <trkpt lat="48.8659" lon="2.10191">
        <ele>104</ele>
        <time>2022-05-29T13:56:40+02:00</time>
      </trkpt>
      <trkpt lat="48.8657" lon="2.10207">
        <ele>104</ele>
        <time>2022-05-29T13:57:07+02:00</time>
      </trkpt>
      <trkpt lat="48.86549" lon="2.10223">
        <ele>105</ele>
        <time>2022-05-29T13:57:33+02:00</time>
      </trkpt>
      <trkpt lat="48.86528" lon="2.10237">
        <ele>107</ele>
        <time>2022-05-29T13:57:56+02:00</time>
      </trkpt>
      <trkpt lat="48.86508" lon="2.10255">
        <ele>109</ele>
        <time>2022-05-29T13:58:21+02:00</time>
      </trkpt>
      <trkpt lat="48.86489" lon="2.10275">
        <ele>112</ele>
        <time>2022-05-29T13:58:48+02:00</time>
      </trkpt>
      <trkpt lat="48.86469" lon="2.10293">
        <ele>114</ele>
        <time>2022-05-29T13:59:13+02:00</time>
      </trkpt>
      <trkpt lat="48.86449" lon="2.1031">
        <ele>117</ele>
        <time>2022-05-29T13:59:40+02:00</time>
      </trkpt>
      <trkpt lat="48.86429" lon="2.10328">
        <ele>119</ele>
        <time>2022-05-29T14:00:10+02:00</time>
      </trkpt>
      <trkpt lat="48.86409" lon="2.10347">
        <ele>122</ele>
        <time>2022-05-29T14:00:33+02:00</time>
      </trkpt>
      <trkpt lat="48.86389" lon="2.10361">
        <ele>125</ele>
        <time>2022-05-29T14:00:56+02:00</time>
      </trkpt>
      <trkpt lat="48.86366" lon="2.10368">
        <ele>127</ele>
        <time>2022-05-29T14:01:16+02:00</time>
      </trkpt>
      <trkpt lat="48.86344" lon="2.10375">
        <ele>128</ele>
        <time>2022-05-29T14:01:43+02:00</time>
      </trkpt>
      <trkpt lat="48.86321" lon="2.10377">
        <ele>131</ele>
        <time>2022-05-29T14:02:08+02:00</time>
      </trkpt>
      <trkpt lat="48.86298" lon="2.10384">
        <ele>133</ele>
        <time>2022-05-29T14:02:32+02:00</time>
      </trkpt>
      <trkpt lat="48.86276" lon="2.1039">
        <ele>136</ele>
        <time>2022-05-29T14:02:51+02:00</time>
      </trkpt>
      <trkpt lat="48.86253" lon="2.10397">
        <ele>138</ele>
        <time>2022-05-29T14:03:14+02:00</time>
      </trkpt>
      <trkpt lat="48.8623" lon="2.104">
        <ele>140</ele>
        <time>2022-05-29T14:03:34+02:00</time>
      </trkpt>
      <trkpt lat="48.86207" lon="2.10408">
        <ele>142</ele>
        <time>2022-05-29T14:03:55+02:00</time>
      </trkpt>
      <trkpt lat="48.86184" lon="2.10411">
        <ele>144</ele>
        <time>2022-05-29T14:04:17+02:00</time>
      </trkpt>
      <trkpt lat="48.86162" lon="2.10416">
        <ele>146</ele>
        <time>2022-05-29T14:04:39+02:00</time>
      </trkpt>
      <trkpt lat="48.86139" lon="2.10425">
        <ele>148</ele>
        <time>2022-05-29T14:05:01+02:00</time>
      </trkpt>
      <trkpt lat="48.86116" lon="2.10432">
        <ele>151</ele>
        <time>2022-05-29T14:05:22+02:00</time>
      </trkpt>
      <trkpt lat="48.86093" lon="2.10438">
        <ele>154</ele>
        <time>2022-05-29T14:05:47+02:00</time>
      </trkpt>
      <trkpt lat="48.86071" lon="2.10437">
        <ele>157</ele>
        <time>2022-05-29T14:06:07+02:00</time>
      </trkpt>
      <trkpt lat="48.86048" lon="2.10445">
        <ele>160</ele>
        <time>2022-05-29T14:06:34+02:00</time>
      </trkpt>
      <trkpt lat="48.86026" lon="2.10448">
        <ele>161</ele>
        <time>2022-05-29T14:06:56+02:00</time>
      </trkpt>
      <trkpt lat="48.86002" lon="2.10454">
        <ele>162</ele>
        <time>2022-05-29T14:07:22+02:00</time>
      </trkpt>
      <trkpt lat="48.85979" lon="2.10458">
        <ele>163</ele>
        <time>2022-05-29T14:07:51+02:00</time>
      </trkpt>
      <trkpt lat="48.85957" lon="2.10464">
        <ele>163</ele>
        <time>2022-05-29T14:08:11+02:00</time>
      </trkpt>
      <trkpt lat="48.85935" lon="2.10473">
        <ele>164</ele>
        <time>2022-05-29T14:08:30+02:00</time>
      </trkpt>
      <trkpt lat="48.85926" lon="2.10505">
        <ele>166</ele>
        <time>2022-05-29T14:08:50+02:00</time>
      </trkpt>
      <trkpt lat="48.85918" lon="2.10538">
        <ele>166</ele>
        <time>2022-05-29T14:09:11+02:00</time>
      </trkpt>
      <trkpt lat="48.85912" lon="2.10572">
        <ele>166</ele>
        <time>2022-05-29T14:09:35+02:00</time>
      </trkpt>
    </trkseg>
  </trk>
</gpx>